createdAt,value
2017-10-25T00:02:05.128Z,12.80
2017-10-25T00:04:32.066Z,16.50
2017-10-25T00:07:12.158Z,17.23
2017-10-25T00:09:54.778Z,13.47
2017-10-25T00:12:22.821Z,14.17
2017-10-25T00:14:53.064Z,13.83
2017-10-25T00:17:20.806Z,17.27
2017-10-25T00:19:46.821Z,12.40
2017-10-25T00:22:12.841Z,15.40
2017-10-25T00:24:45.241Z,12.93
2017-10-25T00:27:11.257Z,11.37
2017-10-25T00:29:37.330Z,14.50
2017-10-25T00:32:05.271Z,13.17
2017-10-25T00:34:56.441Z,11.87
2017-10-25T00:37:33.577Z,11.43
2017-10-25T00:40:29.640Z,12.60
2017-10-25T00:43:08.833Z,11.33
2017-10-25T00:45:34.805Z,11.03
2017-10-25T00:48:08.843Z,11.83
2017-10-25T00:50:39.248Z,13.73
2017-10-25T00:53:06.259Z,12.70
2017-10-25T00:55:32.949Z,14.77
2017-10-25T00:58:11.681Z,14.10
2017-10-25T01:00:38.325Z,11.23
2017-10-25T01:03:09.749Z,13.17
2017-10-25T01:05:41.169Z,11.60
2017-10-25T01:08:26.547Z,11.30
2017-10-25T01:10:56.107Z,14.00
2017-10-25T01:13:22.118Z,14.10
2017-10-25T01:15:50.101Z,12.73
2017-10-25T01:18:23.413Z,14.10
2017-10-25T01:20:52.923Z,13.30
2017-10-25T01:23:27.182Z,10.60
2017-10-25T01:26:10.602Z,13.20
2017-10-25T01:28:37.630Z,17.30
2017-10-25T01:31:03.525Z,16.00
2017-10-25T01:33:30.471Z,14.97
2017-10-25T01:36:09.765Z,13.03
2017-10-25T01:38:37.798Z,13.90
2017-10-25T01:41:05.765Z,15.50
2017-10-25T01:43:32.738Z,14.70
2017-10-25T01:45:59.412Z,15.00
2017-10-25T01:48:27.325Z,13.40
2017-10-25T01:50:57.362Z,11.27
2017-10-25T01:53:29.003Z,13.83
2017-10-25T01:56:01.933Z,10.40
2017-10-25T01:58:34.530Z,17.23
2017-10-25T02:01:08.885Z,12.10
2017-10-25T02:03:46.417Z,13.43
2017-10-25T02:06:13.078Z,12.10
2017-10-25T02:08:41.002Z,9.73
2017-10-25T02:11:08.976Z,17.67
2017-10-25T02:14:01.489Z,14.47
2017-10-25T02:16:28.477Z,18.17
2017-10-25T02:19:02.507Z,14.20
2017-10-25T02:21:34.054Z,12.67
2017-10-25T02:24:12.260Z,15.13
2017-10-25T02:26:39.992Z,16.87
2017-10-25T02:29:26.177Z,13.97
2017-10-25T02:31:56.923Z,15.40
2017-10-25T02:34:22.872Z,12.00
2017-10-25T02:36:48.857Z,13.77
2017-10-25T02:39:27.838Z,13.87
2017-10-25T02:41:54.558Z,11.93
2017-10-25T02:44:26.210Z,10.70
2017-10-25T02:46:59.649Z,13.20
2017-10-25T02:49:30.234Z,10.07
2017-10-25T02:52:03.058Z,9.87
2017-10-25T02:54:30.803Z,10.37
2017-10-25T02:56:56.831Z,13.33
2017-10-25T02:59:22.752Z,22.93
2017-10-25T03:01:48.678Z,14.70
2017-10-25T03:04:15.666Z,12.90
2017-10-25T03:06:49.569Z,13.63
2017-10-25T03:09:16.220Z,12.10
2017-10-25T03:11:47.625Z,10.00
2017-10-25T03:14:13.549Z,9.20
2017-10-25T03:16:39.496Z,12.20
2017-10-25T03:19:12.834Z,22.27
2017-10-25T03:21:47.655Z,12.43
2017-10-25T03:24:16.430Z,10.03
2017-10-25T03:26:43.164Z,13.30
2017-10-25T03:29:17.906Z,12.30
2017-10-25T03:31:44.622Z,13.27
2017-10-25T03:34:18.694Z,12.90
2017-10-25T03:36:56.049Z,10.27
2017-10-25T03:39:22.796Z,11.33
2017-10-25T03:41:54.032Z,14.20
2017-10-25T03:44:32.368Z,18.60
2017-10-25T03:47:10.873Z,10.90
2017-10-25T03:49:53.401Z,9.90
2017-10-25T03:52:32.941Z,15.17
2017-10-25T03:54:59.952Z,17.03
2017-10-25T03:57:25.973Z,12.90
2017-10-25T03:59:52.037Z,19.03
2017-10-25T04:02:19.794Z,24.60
2017-10-25T04:04:51.074Z,13.77
2017-10-25T04:07:21.572Z,15.53
2017-10-25T04:09:48.254Z,13.90
2017-10-25T04:12:14.236Z,15.87
2017-10-25T04:14:48.386Z,13.80
2017-10-25T04:17:32.881Z,13.60
2017-10-25T04:20:10.313Z,18.37
2017-10-25T04:22:36.973Z,21.20
2017-10-25T04:25:11.361Z,14.07
2017-10-25T04:27:38.300Z,12.13
2017-10-25T04:30:07.810Z,14.80
2017-10-25T04:32:33.834Z,15.37
2017-10-25T04:35:03.360Z,13.43
2017-10-25T04:37:37.790Z,14.23
2017-10-25T04:40:05.527Z,13.80
2017-10-25T04:42:44.515Z,17.73
2017-10-25T04:45:12.523Z,13.50
2017-10-25T04:47:40.505Z,13.40
2017-10-25T04:50:08.090Z,16.00
2017-10-25T04:52:34.802Z,15.83
2017-10-25T04:55:15.535Z,16.47
2017-10-25T04:57:49.000Z,20.20
2017-10-25T05:00:18.502Z,18.63
2017-10-25T05:02:49.995Z,17.23
2017-10-25T05:05:18.010Z,17.83
2017-10-25T05:07:46.023Z,20.50
2017-10-25T05:10:12.682Z,15.90
2017-10-25T05:12:49.729Z,17.50
2017-10-25T05:15:25.199Z,19.53
2017-10-25T05:17:52.926Z,18.67
2017-10-25T05:20:18.845Z,17.43
2017-10-25T05:22:44.911Z,22.23
2017-10-25T05:25:21.890Z,19.03
2017-10-25T05:27:49.628Z,12.50
2017-10-25T05:30:40.626Z,15.00
2017-10-25T05:33:19.490Z,14.60
2017-10-25T05:35:46.201Z,13.97
2017-10-25T05:38:12.271Z,16.80
2017-10-25T05:40:41.038Z,9.87
2017-10-25T05:43:20.706Z,13.53
2017-10-25T05:45:46.702Z,16.27
2017-10-25T05:48:27.906Z,17.60
2017-10-25T05:51:12.616Z,11.10
2017-10-25T05:53:38.550Z,14.80
2017-10-25T05:56:13.215Z,12.17
2017-10-25T05:58:40.224Z,20.30
2017-10-25T06:01:06.171Z,8.47
2017-10-25T06:03:52.395Z,9.53
2017-10-25T06:06:21.993Z,12.47
2017-10-25T06:08:47.930Z,14.57
2017-10-25T06:11:13.977Z,8.60
2017-10-25T06:13:39.949Z,10.27
2017-10-25T06:16:11.606Z,7.67
2017-10-25T06:18:55.086Z,8.97
2017-10-25T06:21:36.678Z,9.33
2017-10-25T06:24:02.594Z,9.67
2017-10-25T06:26:29.593Z,22.57
2017-10-25T06:28:55.614Z,9.40
2017-10-25T06:31:30.170Z,13.73
2017-10-25T06:33:56.898Z,9.93
2017-10-25T06:36:22.922Z,10.20
2017-10-25T06:39:00.325Z,12.67
2017-10-25T06:41:27.010Z,14.57
2017-10-25T06:43:56.249Z,9.43
2017-10-25T06:46:26.734Z,10.30
2017-10-25T06:48:54.762Z,11.63
2017-10-25T06:51:20.792Z,11.17
2017-10-25T06:53:46.723Z,10.50
2017-10-25T06:56:23.830Z,11.53
2017-10-25T06:59:06.559Z,11.87
2017-10-25T07:01:36.141Z,10.67
2017-10-25T07:04:14.564Z,10.33
2017-10-25T07:07:03.261Z,10.07
2017-10-25T07:09:29.183Z,12.83
2017-10-25T07:11:56.159Z,13.70
2017-10-25T07:14:33.883Z,10.37
2017-10-25T07:17:14.497Z,10.10
2017-10-25T07:20:03.034Z,9.97
2017-10-25T07:22:28.970Z,10.30
2017-10-25T07:24:57.621Z,12.97
2017-10-25T07:27:24.458Z,18.10
2017-10-25T07:29:50.385Z,9.90
2017-10-25T07:32:18.137Z,9.27
2017-10-25T07:34:44.076Z,13.80
2017-10-25T07:37:11.812Z,8.60
2017-10-25T07:39:37.725Z,9.83
2017-10-25T07:42:03.629Z,14.77
2017-10-25T07:44:29.541Z,12.63
2017-10-25T07:46:55.452Z,11.07
2017-10-25T07:49:29.462Z,27.67
2017-10-25T07:51:57.189Z,10.40
2017-10-25T07:54:23.136Z,9.37
2017-10-25T07:56:50.074Z,10.10
2017-10-25T07:59:16.707Z,10.50
2017-10-25T08:01:44.721Z,11.57
2017-10-25T08:04:13.486Z,13.87
2017-10-25T08:06:45.977Z,10.27
2017-10-25T08:09:12.629Z,10.37
2017-10-25T08:11:39.356Z,10.43
2017-10-25T08:14:10.698Z,11.30
2017-10-25T08:16:40.162Z,9.63
2017-10-25T08:19:06.158Z,12.70
2017-10-25T08:21:37.933Z,9.90
2017-10-25T08:24:04.614Z,9.90
2017-10-25T08:26:31.542Z,9.20
2017-10-25T08:29:01.043Z,8.20
2017-10-25T08:31:38.535Z,6.97
2017-10-25T08:34:10.169Z,7.10
2017-10-25T08:36:38.641Z,6.50
2017-10-25T08:39:05.325Z,27.20
2017-10-25T08:41:31.273Z,6.23
2017-10-25T08:43:57.251Z,6.33
2017-10-25T08:46:23.982Z,6.80
2017-10-25T08:48:49.918Z,7.60
2017-10-25T08:51:15.899Z,18.17
2017-10-25T08:53:41.859Z,8.93
2017-10-25T08:56:07.864Z,13.90
2017-10-25T08:58:33.800Z,6.93
2017-10-25T09:01:03.152Z,10.10
2017-10-25T09:03:33.681Z,11.13
2017-10-25T09:06:00.366Z,5.33
2017-10-25T09:08:34.749Z,9.00
2017-10-25T09:11:02.505Z,4.40
2017-10-25T09:13:33.242Z,4.53
2017-10-25T09:16:01.931Z,7.20
2017-10-25T09:18:28.634Z,6.37
2017-10-25T09:20:58.024Z,3.97
2017-10-25T09:23:23.949Z,4.73
2017-10-25T09:25:49.869Z,5.13
2017-10-25T09:28:15.786Z,4.07
2017-10-25T09:30:42.457Z,7.87
2017-10-25T09:33:08.446Z,12.13
2017-10-25T09:35:36.204Z,3.37
2017-10-25T09:38:16.395Z,7.60
2017-10-25T09:40:44.414Z,3.73
2017-10-25T09:43:14.345Z,4.80
2017-10-25T09:45:43.838Z,6.53
2017-10-25T09:48:09.752Z,3.40
2017-10-25T09:50:35.667Z,3.73
2017-10-25T09:53:01.578Z,6.40
2017-10-25T09:55:27.493Z,3.90
2017-10-25T09:57:55.225Z,3.97
2017-10-25T10:00:29.887Z,4.73
2017-10-25T10:02:57.630Z,8.70
2017-10-25T10:05:23.640Z,3.73
2017-10-25T10:07:50.596Z,5.67
2017-10-25T10:10:17.572Z,9.93
2017-10-25T10:12:46.241Z,6.27
2017-10-25T10:15:13.707Z,15.20
2017-10-25T10:17:45.255Z,6.90
2017-10-25T10:20:17.742Z,9.73
2017-10-25T10:22:44.306Z,8.97
2017-10-25T10:25:10.308Z,3.07
2017-10-25T10:27:38.389Z,10.73
2017-10-25T10:30:04.321Z,8.97
2017-10-25T10:32:44.301Z,17.00
2017-10-25T10:35:11.327Z,12.50
2017-10-25T10:37:39.073Z,3.13
2017-10-25T10:40:05.213Z,2.53
2017-10-25T10:42:31.957Z,2.97
2017-10-25T10:45:01.466Z,2.80
2017-10-25T10:47:29.462Z,4.90
2017-10-25T10:49:57.227Z,3.33
2017-10-25T10:52:24.998Z,4.20
2017-10-25T10:54:52.783Z,6.43
2017-10-25T10:57:19.489Z,7.83
2017-10-25T10:59:45.465Z,10.27
2017-10-25T11:02:11.437Z,3.30
2017-10-25T11:04:40.557Z,6.00
2017-10-25T11:07:06.583Z,6.53
2017-10-25T11:09:32.673Z,3.90
2017-10-25T11:12:05.617Z,3.30
2017-10-25T11:14:53.091Z,3.50
2017-10-25T11:17:29.805Z,3.00
2017-10-25T11:22:58.000Z,3.03
2017-10-25T11:25:24.689Z,4.40
2017-10-25T11:28:11.820Z,2.83
2017-10-25T11:30:56.325Z,3.03
2017-10-25T11:36:15.541Z,3.70
2017-10-25T11:38:41.483Z,3.77
2017-10-25T11:41:07.579Z,8.13
2017-10-25T11:43:33.554Z,5.13
2017-10-25T11:46:00.325Z,17.53
2017-10-25T11:48:30.096Z,5.13
2017-10-25T11:51:13.473Z,5.53
2017-10-25T11:53:41.514Z,5.83
2017-10-25T11:56:13.510Z,3.13
2017-10-25T11:58:42.970Z,3.27
2017-10-25T12:01:20.610Z,3.20
2017-10-25T12:03:49.986Z,10.87
2017-10-25T12:06:16.918Z,5.97
2017-10-25T12:08:57.695Z,6.13
2017-10-25T12:11:23.737Z,3.03
2017-10-25T12:13:49.755Z,4.07
2017-10-25T12:16:15.786Z,4.70
2017-10-25T12:18:45.430Z,11.90
2017-10-25T12:21:11.422Z,8.53
2017-10-25T12:23:57.051Z,3.40
2017-10-25T12:26:26.712Z,2.87
2017-10-25T12:28:52.754Z,7.90
2017-10-25T12:31:19.502Z,2.03
2017-10-25T12:33:48.190Z,2.83
2017-10-25T12:36:22.721Z,2.10
2017-10-25T12:38:51.500Z,6.53
2017-10-25T12:41:22.327Z,5.57
2017-10-25T12:43:48.350Z,4.20
2017-10-25T12:46:21.166Z,2.97
2017-10-25T12:48:47.969Z,6.07
2017-10-25T12:51:17.709Z,2.57
2017-10-25T12:53:58.318Z,3.00
2017-10-25T12:56:29.701Z,9.40
2017-10-25T12:58:56.660Z,4.90
2017-10-25T13:01:33.582Z,2.97
2017-10-25T13:04:05.737Z,5.87
2017-10-25T13:06:38.185Z,3.33
2017-10-25T13:09:05.679Z,3.30
2017-10-25T13:11:36.171Z,2.27
2017-10-25T13:14:07.822Z,1.63
2017-10-25T13:16:48.256Z,2.93
2017-10-25T13:19:16.286Z,1.10
2017-10-25T13:21:43.235Z,2.20
2017-10-25T13:24:09.263Z,1.00
2017-10-25T13:26:35.328Z,7.70
2017-10-25T13:29:03.455Z,5.70
2017-10-25T13:31:32.867Z,2.57
2017-10-25T13:33:58.921Z,2.33
2017-10-25T13:36:31.819Z,6.63
2017-10-25T13:39:10.338Z,2.00
2017-10-25T13:41:46.821Z,2.37
2017-10-25T13:44:12.871Z,1.70
2017-10-25T13:46:40.870Z,1.20
2017-10-25T13:49:06.913Z,4.07
2017-10-25T13:51:32.926Z,7.93
2017-10-25T13:53:59.869Z,2.20
2017-10-25T13:56:30.610Z,2.07
2017-10-25T13:59:08.054Z,6.53
2017-10-25T14:01:38.644Z,2.70
2017-10-25T14:04:04.662Z,4.57
2017-10-25T14:06:30.598Z,1.27
2017-10-25T14:08:56.631Z,3.30
2017-10-25T14:11:36.538Z,2.30
2017-10-25T14:14:14.897Z,1.70
2017-10-25T14:16:47.278Z,1.70
2017-10-25T14:19:13.998Z,4.83
2017-10-25T14:21:52.057Z,7.03
2017-10-25T14:24:31.385Z,3.00
2017-10-25T14:27:11.813Z,6.20
2017-10-25T14:29:38.542Z,3.40
2017-10-25T14:32:08.941Z,3.33
2017-10-25T14:34:34.922Z,1.63
2017-10-25T14:37:03.726Z,4.27
2017-10-25T14:39:41.348Z,2.70
2017-10-25T14:42:07.273Z,4.60
2017-10-25T14:44:34.302Z,4.00
2017-10-25T14:47:04.705Z,2.73
2017-10-25T14:49:38.336Z,14.20
2017-10-25T14:52:08.634Z,5.50
2017-10-25T14:54:34.574Z,8.63
2017-10-25T14:57:08.303Z,2.50
2017-10-25T15:02:26.097Z,6.70
2017-10-25T15:05:06.561Z,3.27
2017-10-25T15:07:51.374Z,3.00
2017-10-25T15:10:17.307Z,4.23
2017-10-25T15:12:47.369Z,2.80
2017-10-25T15:15:16.916Z,2.40
2017-10-25T15:18:01.084Z,9.63
2017-10-25T15:20:35.470Z,4.30
2017-10-25T15:23:03.239Z,3.37
2017-10-25T15:25:37.293Z,3.97
2017-10-25T15:28:03.283Z,5.77
2017-10-25T15:30:38.961Z,5.00
2017-10-25T15:33:07.015Z,4.77
2017-10-25T15:35:36.591Z,6.73
2017-10-25T15:38:02.626Z,3.33
2017-10-25T15:40:35.342Z,6.67
2017-10-25T15:43:01.271Z,5.50
2017-10-25T15:45:39.149Z,3.83
2017-10-25T15:48:16.753Z,3.50
2017-10-25T15:50:45.527Z,5.67
2017-10-25T15:53:15.628Z,3.30
2017-10-25T15:55:46.988Z,3.57
2017-10-25T15:58:13.934Z,3.47
2017-10-25T16:00:41.937Z,6.40
2017-10-25T16:03:34.636Z,5.40
2017-10-25T16:06:18.742Z,4.47
2017-10-25T16:08:55.401Z,9.47
2017-10-25T16:11:21.323Z,3.47
2017-10-25T16:13:47.252Z,5.07
2017-10-25T16:16:13.950Z,16.30
2017-10-25T16:18:39.894Z,8.83
2017-10-25T16:21:05.834Z,9.77
2017-10-25T16:23:33.611Z,6.50
2017-10-25T16:26:00.302Z,4.90
2017-10-25T16:28:26.221Z,4.27
2017-10-25T16:30:52.150Z,4.80
2017-10-25T16:33:18.070Z,4.03
2017-10-25T16:35:43.981Z,3.53
2017-10-25T16:38:09.905Z,3.57
2017-10-25T16:40:35.878Z,6.90
2017-10-25T16:43:01.807Z,4.93
2017-10-25T16:45:27.757Z,7.00
2017-10-25T16:47:53.689Z,3.87
2017-10-25T16:50:20.382Z,7.00
2017-10-25T16:52:46.333Z,6.07
2017-10-25T16:55:12.292Z,4.70
2017-10-25T16:57:38.225Z,12.40
2017-10-25T17:00:08.121Z,6.57
2017-10-25T17:02:34.045Z,8.10
2017-10-25T17:05:00.038Z,16.03
2017-10-25T17:07:25.959Z,5.40
2017-10-25T17:09:51.890Z,5.67
2017-10-25T17:12:17.836Z,6.07
2017-10-25T17:14:43.758Z,5.93
2017-10-25T17:17:09.696Z,5.73
2017-10-25T17:19:35.660Z,10.23
2017-10-25T17:22:02.351Z,5.03
2017-10-25T17:24:28.273Z,8.50
2017-10-25T17:26:54.205Z,5.90
2017-10-25T17:29:20.193Z,5.40
2017-10-25T17:31:50.415Z,5.60
2017-10-25T17:34:24.938Z,5.83
2017-10-25T17:36:50.866Z,7.63
2017-10-25T17:39:20.733Z,12.17
2017-10-25T17:41:46.667Z,5.33
2017-10-25T17:44:12.618Z,5.17
2017-10-25T17:46:41.760Z,6.40
2017-10-25T17:49:07.688Z,12.10
2017-10-25T17:51:33.607Z,5.50
2017-10-25T17:54:03.773Z,5.03
2017-10-25T17:56:29.723Z,6.63
2017-10-25T17:58:55.663Z,7.90
2017-10-25T18:01:21.618Z,6.63
2017-10-25T18:03:47.585Z,7.60
2017-10-25T18:06:13.506Z,7.93
2017-10-25T18:08:39.495Z,6.70
2017-10-25T18:11:16.572Z,9.40
2017-10-25T18:13:43.253Z,10.50
2017-10-25T18:22:16.021Z,6.23
2017-10-25T18:24:43.154Z,6.87
2017-10-25T18:27:09.836Z,7.40
2017-10-25T18:29:35.766Z,7.63
2017-10-25T18:32:05.442Z,7.83
2017-10-25T18:34:35.962Z,12.40
2017-10-25T18:37:03.613Z,7.33
2017-10-25T18:39:32.652Z,10.50
2017-10-25T18:41:58.644Z,8.40
2017-10-25T18:44:24.588Z,9.60
2017-10-25T18:46:51.252Z,8.37
2017-10-25T18:49:17.226Z,13.40
2017-10-25T18:51:43.206Z,12.00
2017-10-25T18:54:09.158Z,14.50
2017-10-25T18:56:35.104Z,7.90
2017-10-25T18:59:01.046Z,9.73
2017-10-25T19:01:26.990Z,7.40
2017-10-25T19:03:59.180Z,12.63
2017-10-25T19:06:40.583Z,7.30
2017-10-25T19:09:10.011Z,5.37
2017-10-25T19:11:53.521Z,9.50
2017-10-25T19:14:30.198Z,15.77
2017-10-25T19:16:59.480Z,6.63
2017-10-25T19:19:27.076Z,9.50
2017-10-25T19:21:53.136Z,6.87
2017-10-25T19:24:31.828Z,8.73
2017-10-25T19:26:57.796Z,7.07
2017-10-25T19:29:28.032Z,11.27
2017-10-25T19:31:53.977Z,12.80
2017-10-25T19:34:21.978Z,8.87
2017-10-25T19:36:58.613Z,13.23
2017-10-25T19:39:28.767Z,8.93
2017-10-25T19:41:55.019Z,15.00
2017-10-25T19:44:20.960Z,5.33
2017-10-25T19:46:52.178Z,6.60
2017-10-25T19:49:26.854Z,5.67
2017-10-25T19:51:53.793Z,5.97
2017-10-25T19:54:23.316Z,12.30
2017-10-25T19:56:49.269Z,9.50
2017-10-25T19:59:18.958Z,12.67
2017-10-25T20:04:44.068Z,7.10
2017-10-25T20:07:10.063Z,8.93
2017-10-25T20:09:36.993Z,17.97
2017-10-25T20:12:20.614Z,7.90
2017-10-25T20:15:08.059Z,5.60
2017-10-25T20:17:34.150Z,5.73
2017-10-25T20:20:01.245Z,6.03
2017-10-25T20:22:27.167Z,7.17
2017-10-25T20:24:53.084Z,5.90
2017-10-25T20:27:25.423Z,9.70
2017-10-25T20:30:05.802Z,6.73
2017-10-25T20:32:39.269Z,6.10
2017-10-25T20:35:16.792Z,6.73
2017-10-25T20:40:56.673Z,5.80
2017-10-25T20:43:38.118Z,8.23
2017-10-25T20:49:14.277Z,6.33
2017-10-25T20:51:51.861Z,7.77
2017-10-25T20:54:41.539Z,5.37
2017-10-25T20:57:09.517Z,7.87
2017-10-25T20:59:41.999Z,5.30
2017-10-25T21:02:22.177Z,8.30
2017-10-25T21:04:51.713Z,4.47
2017-10-25T21:07:24.109Z,6.33
2017-10-25T21:09:52.984Z,9.00
2017-10-25T21:12:29.291Z,8.97
2017-10-25T21:15:10.778Z,7.73
2017-10-25T21:17:37.774Z,9.63
2017-10-25T21:20:03.821Z,6.20
2017-10-25T21:22:48.418Z,4.70
2017-10-25T21:25:16.486Z,7.50
2017-10-25T21:30:35.217Z,11.87
2017-10-25T21:33:10.057Z,5.90
2017-10-25T21:35:43.658Z,8.23
2017-10-25T21:38:25.269Z,7.53
2017-10-25T21:41:13.895Z,14.20
2017-10-25T21:43:55.608Z,14.13
2017-10-25T21:46:27.002Z,7.83
2017-10-25T21:48:53.025Z,6.80
2017-10-25T21:51:22.134Z,9.77
2017-10-25T21:53:48.170Z,5.27
2017-10-25T21:56:14.177Z,5.80
2017-10-25T21:58:41.128Z,21.47
2017-10-25T22:01:07.057Z,11.60
2017-10-25T22:03:37.067Z,5.40
2017-10-25T22:06:03.771Z,9.40
2017-10-25T22:08:29.778Z,5.77
2017-10-25T22:11:06.680Z,6.13
2017-10-25T22:13:46.220Z,5.53
2017-10-25T22:16:15.980Z,6.00
2017-10-25T22:18:43.954Z,5.50
2017-10-25T22:21:20.449Z,5.27
2017-10-25T22:23:49.126Z,5.63
2017-10-25T22:26:15.396Z,7.73
2017-10-25T22:28:47.567Z,6.10
2017-10-25T22:31:26.310Z,5.67
2017-10-25T22:33:52.324Z,6.63
2017-10-25T22:36:29.558Z,7.73
2017-10-25T22:39:02.669Z,8.70
2017-10-25T22:41:28.679Z,6.80
2017-10-25T22:44:02.330Z,8.30
2017-10-25T22:46:30.374Z,14.37
2017-10-25T22:48:56.300Z,5.90
2017-10-25T22:51:46.853Z,6.97
2017-10-25T22:54:23.470Z,10.10
2017-10-25T22:57:02.087Z,6.50
2017-10-25T22:59:32.481Z,6.33
2017-10-25T23:02:09.195Z,13.63
2017-10-25T23:04:35.854Z,7.37
2017-10-25T23:07:15.499Z,5.50
2017-10-25T23:09:45.057Z,6.13
2017-10-25T23:12:11.078Z,7.27
2017-10-25T23:14:48.086Z,9.80
2017-10-25T23:17:18.641Z,7.27
2017-10-25T23:19:47.994Z,6.13
2017-10-25T23:22:14.945Z,7.07
2017-10-25T23:24:58.842Z,8.13
2017-10-25T23:27:24.750Z,6.53
2017-10-25T23:30:05.734Z,13.13
2017-10-25T23:32:37.265Z,7.20
2017-10-25T23:35:07.871Z,7.07
2017-10-25T23:37:49.404Z,6.83
2017-10-25T23:46:02.557Z,9.87
2017-10-25T23:48:50.002Z,7.63
2017-10-25T23:51:18.013Z,7.13
2017-10-25T23:53:57.789Z,6.83
2017-10-25T23:56:24.797Z,8.63
2017-10-25T23:59:01.792Z,8.17
